sensor_id;sensor_type;location;lat;lon;timestamp;pressure;altitude;pressure_sealevel;temperature;humidity
74327;BME280;62745;51.060;13.786;2023-11-19T00:00:25;100265.34;;;4.48;100.00
74327;BME280;62745;51.060;13.786;2023-11-19T00:02:50;100266.56;;;4.54;100.00
74327;BME280;62745;51.060;13.786;2023-11-19T00:05:15;100254.47;;;4.51;100.00
74327;BME280;62745;51.060;13.786;2023-11-19T00:07:41;100241.03;;;4.45;100.00
74327;BME280;62745;51.060;13.786;2023-11-19T00:10:11;100241.50;;;4.40;100.00
74327;BME280;62745;51.060;13.786;2023-11-19T00:12:43;100218.69;;;4.39;100.00
74327;BME280;62745;51.060;13.786;2023-11-19T00:15:09;100204.97;;;4.44;100.00
74327;BME280;62745;51.060;13.786;2023-11-19T00:17:38;100193.22;;;4.38;100.00
74327;BME280;62745;51.060;13.786;2023-11-19T00:20:13;100185.03;;;4.32;100.00
74327;BME280;62745;51.060;13.786;2023-11-19T00:22:39;100194.72;;;4.41;100.00
74327;BME280;62745;51.060;13.786;2023-11-19T00:25:05;100191.31;;;4.31;100.00
74327;BME280;62745;51.060;13.786;2023-11-19T00:27:31;100198.59;;;4.29;100.00
74327;BME280;62745;51.060;13.786;2023-11-19T00:29:56;100177.38;;;4.20;100.00
74327;BME280;62745;51.060;13.786;2023-11-19T00:32:22;100149.78;;;4.23;100.00
74327;BME280;62745;51.060;13.786;2023-11-19T00:34:47;100172.81;;;4.31;100.00
74327;BME280;62745;51.060;13.786;2023-11-19T00:37:23;100161.28;;;4.14;100.00
74327;BME280;62745;51.060;13.786;2023-11-19T00:39:48;100176.59;;;4.28;100.00
74327;BME280;62745;51.060;13.786;2023-11-19T00:42:14;100171.47;;;4.27;100.00
74327;BME280;62745;51.060;13.786;2023-11-19T00:44:39;100178.34;;;4.19;100.00
74327;BME280;62745;51.060;13.786;2023-11-19T00:47:04;100163.03;;;4.23;100.00
74327;BME280;62745;51.060;13.786;2023-11-19T00:49:30;100162.03;;;4.24;100.00
74327;BME280;62745;51.060;13.786;2023-11-19T00:51:57;100163.53;;;4.27;100.00
74327;BME280;62745;51.060;13.786;2023-11-19T00:54:23;100133.94;;;4.23;100.00
74327;BME280;62745;51.060;13.786;2023-11-19T00:56:50;100143.56;;;4.32;100.00
74327;BME280;62745;51.060;13.786;2023-11-19T00:59:17;100146.22;;;4.32;100.00
74327;BME280;62745;51.060;13.786;2023-11-19T01:01:42;100134.03;;;4.39;100.00
74327;BME280;62745;51.060;13.786;2023-11-19T01:04:08;100122.47;;;4.40;100.00
74327;BME280;62745;51.060;13.786;2023-11-19T01:06:33;100118.34;;;4.38;100.00
74327;BME280;62745;51.060;13.786;2023-11-19T01:08:59;100111.75;;;4.42;100.00
74327;BME280;62745;51.060;13.786;2023-11-19T01:11:25;100097.38;;;4.44;100.00
74327;BME280;62745;51.060;13.786;2023-11-19T01:13:51;100081.97;;;4.40;100.00
74327;BME280;62745;51.060;13.786;2023-11-19T01:16:16;100083.03;;;4.21;100.00
74327;BME280;62745;51.060;13.786;2023-11-19T01:18:42;100064.53;;;4.21;100.00
74327;BME280;62745;51.060;13.786;2023-11-19T01:21:07;100050.25;;;4.14;100.00
74327;BME280;62745;51.060;13.786;2023-11-19T01:23:33;100044.81;;;4.15;100.00
74327;BME280;62745;51.060;13.786;2023-11-19T01:25:59;100057.25;;;4.23;100.00
74327;BME280;62745;51.060;13.786;2023-11-19T01:28:24;100064.72;;;4.28;100.00
74327;BME280;62745;51.060;13.786;2023-11-19T01:30:53;100067.25;;;4.37;100.00
74327;BME280;62745;51.060;13.786;2023-11-19T01:33:18;100061.28;;;4.35;100.00
74327;BME280;62745;51.060;13.786;2023-11-19T01:35:43;100048.59;;;4.39;100.00
74327;BME280;62745;51.060;13.786;2023-11-19T01:38:09;100041.50;;;4.47;100.00
74327;BME280;62745;51.060;13.786;2023-11-19T01:40:35;100020.13;;;4.33;100.00
74327;BME280;62745;51.060;13.786;2023-11-19T01:43:01;100028.69;;;4.61;100.00
74327;BME280;62745;51.060;13.786;2023-11-19T01:45:28;100020.75;;;4.61;100.00
74327;BME280;62745;51.060;13.786;2023-11-19T01:47:56;100017.63;;;4.65;100.00
74327;BME280;62745;51.060;13.786;2023-11-19T01:50:23;100012.00;;;4.68;100.00
74327;BME280;62745;51.060;13.786;2023-11-19T01:52:51;100011.00;;;4.69;100.00
74327;BME280;62745;51.060;13.786;2023-11-19T01:55:17;99997.13;;;4.67;100.00
74327;BME280;62745;51.060;13.786;2023-11-19T01:57:43;99998.59;;;4.70;100.00
74327;BME280;62745;51.060;13.786;2023-11-19T02:00:08;99998.97;;;4.75;100.00
74327;BME280;62745;51.060;13.786;2023-11-19T02:02:37;99984.59;;;4.77;100.00
74327;BME280;62745;51.060;13.786;2023-11-19T02:05:05;99969.53;;;4.78;100.00
74327;BME280;62745;51.060;13.786;2023-11-19T02:07:31;99954.16;;;4.73;100.00
74327;BME280;62745;51.060;13.786;2023-11-19T02:09:56;99958.13;;;4.86;100.00
74327;BME280;62745;51.060;13.786;2023-11-19T02:12:24;99942.25;;;4.77;100.00
74327;BME280;62745;51.060;13.786;2023-11-19T02:14:49;99942.25;;;4.77;100.00
74327;BME280;62745;51.060;13.786;2023-11-19T02:17:28;99953.19;;;4.91;100.00
74327;BME280;62745;51.060;13.786;2023-11-19T02:19:53;99946.06;;;4.75;100.00
74327;BME280;62745;51.060;13.786;2023-11-19T02:22:19;99939.09;;;4.82;100.00
74327;BME280;62745;51.060;13.786;2023-11-19T02:24:46;99927.53;;;4.83;100.00
74327;BME280;62745;51.060;13.786;2023-11-19T02:27:22;99903.38;;;4.78;100.00
74327;BME280;62745;51.060;13.786;2023-11-19T02:29:51;99899.25;;;4.83;100.00
74327;BME280;62745;51.060;13.786;2023-11-19T02:32:16;99899.09;;;4.85;100.00
74327;BME280;62745;51.060;13.786;2023-11-19T02:34:42;99907.72;;;4.87;100.00
74327;BME280;62745;51.060;13.786;2023-11-19T02:37:07;99892.13;;;4.84;100.00
74327;BME280;62745;51.060;13.786;2023-11-19T02:39:33;99883.72;;;4.89;100.00
74327;BME280;62745;51.060;13.786;2023-11-19T02:41:58;99877.59;;;4.88;100.00
74327;BME280;62745;51.060;13.786;2023-11-19T02:44:25;99876.25;;;4.84;100.00
74327;BME280;62745;51.060;13.786;2023-11-19T02:46:53;99875.63;;;4.90;100.00
74327;BME280;62745;51.060;13.786;2023-11-19T02:49:18;99874.78;;;4.90;100.00
74327;BME280;62745;51.060;13.786;2023-11-19T02:51:43;99865.69;;;4.92;100.00
74327;BME280;62745;51.060;13.786;2023-11-19T02:54:09;99848.34;;;4.90;100.00
74327;BME280;62745;51.060;13.786;2023-11-19T02:56:35;99854.28;;;4.92;100.00
74327;BME280;62745;51.060;13.786;2023-11-19T02:59:02;99831.28;;;4.84;100.00
74327;BME280;62745;51.060;13.786;2023-11-19T03:01:39;99829.47;;;4.93;100.00
74327;BME280;62745;51.060;13.786;2023-11-19T03:04:08;99826.47;;;4.96;100.00
74327;BME280;62745;51.060;13.786;2023-11-19T03:06:37;99825.63;;;5.03;100.00
74327;BME280;62745;51.060;13.786;2023-11-19T03:09:02;99815.06;;;4.95;100.00
74327;BME280;62745;51.060;13.786;2023-11-19T03:11:31;99787.28;;;4.91;100.00
74327;BME280;62745;51.060;13.786;2023-11-19T03:13:56;99803.63;;;5.03;100.00
74327;BME280;62745;51.060;13.786;2023-11-19T03:16:22;99778.03;;;4.87;100.00
74327;BME280;62745;51.060;13.786;2023-11-19T03:18:47;99786.09;;;5.02;100.00
74327;BME280;62745;51.060;13.786;2023-11-19T03:21:12;99792.91;;;4.96;100.00
74327;BME280;62745;51.060;13.786;2023-11-19T03:23:37;99773.41;;;4.89;100.00
74327;BME280;62745;51.060;13.786;2023-11-19T03:26:05;99772.38;;;4.98;100.00
74327;BME280;62745;51.060;13.786;2023-11-19T03:28:31;99766.91;;;5.00;100.00
74327;BME280;62745;51.060;13.786;2023-11-19T03:30:56;99766.09;;;5.07;100.00
74327;BME280;62745;51.060;13.786;2023-11-19T03:33:21;99765.25;;;5.07;100.00
74327;BME280;62745;51.060;13.786;2023-11-19T03:35:47;99775.16;;;5.13;100.00
74327;BME280;62745;51.060;13.786;2023-11-19T03:38:12;99755.34;;;5.01;100.00
74327;BME280;62745;51.060;13.786;2023-11-19T03:40:38;99775.47;;;5.18;100.00
74327;BME280;62745;51.060;13.786;2023-11-19T03:43:04;99740.63;;;4.98;100.00
74327;BME280;62745;51.060;13.786;2023-11-19T03:45:29;99744.41;;;5.12;100.00
74327;BME280;62745;51.060;13.786;2023-11-19T03:47:54;99754.13;;;5.28;100.00
74327;BME280;62745;51.060;13.786;2023-11-19T03:50:20;99742.50;;;5.37;100.00
74327;BME280;62745;51.060;13.786;2023-11-19T03:52:46;99727.63;;;5.28;100.00
74327;BME280;62745;51.060;13.786;2023-11-19T03:55:11;99724.81;;;5.29;100.00
74327;BME280;62745;51.060;13.786;2023-11-19T03:57:38;99710.63;;;5.22;100.00
74327;BME280;62745;51.060;13.786;2023-11-19T04:00:03;99710.28;;;5.25;100.00
74327;BME280;62745;51.060;13.786;2023-11-19T04:02:36;99713.91;;;5.24;100.00
74327;BME280;62745;51.060;13.786;2023-11-19T04:05:02;99707.97;;;5.22;100.00
74327;BME280;62745;51.060;13.786;2023-11-19T04:07:28;99693.38;;;5.26;100.00
74327;BME280;62745;51.060;13.786;2023-11-19T04:09:53;99703.31;;;5.24;100.00
74327;BME280;62745;51.060;13.786;2023-11-19T04:12:18;99694.09;;;5.12;100.00
74327;BME280;62745;51.060;13.786;2023-11-19T04:14:44;99690.63;;;5.11;100.00
74327;BME280;62745;51.060;13.786;2023-11-19T04:17:09;99684.69;;;5.01;100.00
74327;BME280;62745;51.060;13.786;2023-11-19T04:19:35;99675.25;;;5.07;100.00
74327;BME280;62745;51.060;13.786;2023-11-19T04:22:00;99673.63;;;5.06;100.00
74327;BME280;62745;51.060;13.786;2023-11-19T04:24:26;99661.22;;;4.98;100.00
74327;BME280;62745;51.060;13.786;2023-11-19T04:26:51;99691.94;;;5.16;100.00
74327;BME280;62745;51.060;13.786;2023-11-19T04:29:17;99687.47;;;5.16;100.00
74327;BME280;62745;51.060;13.786;2023-11-19T04:31:43;99682.16;;;5.24;100.00
74327;BME280;62745;51.060;13.786;2023-11-19T04:34:09;99665.63;;;5.14;100.00
74327;BME280;62745;51.060;13.786;2023-11-19T04:36:36;99656.44;;;4.94;100.00
74327;BME280;62745;51.060;13.786;2023-11-19T04:39:02;99671.81;;;4.98;100.00
74327;BME280;62745;51.060;13.786;2023-11-19T04:41:30;99664.06;;;4.89;100.00
74327;BME280;62745;51.060;13.786;2023-11-19T04:43:55;99657.47;;;4.76;100.00
74327;BME280;62745;51.060;13.786;2023-11-19T04:46:21;99661.94;;;4.76;100.00
74327;BME280;62745;51.060;13.786;2023-11-19T04:48:49;99647.91;;;4.67;100.00
74327;BME280;62745;51.060;13.786;2023-11-19T04:51:14;99655.19;;;4.73;100.00
74327;BME280;62745;51.060;13.786;2023-11-19T04:53:39;99651.88;;;4.71;100.00
74327;BME280;62745;51.060;13.786;2023-11-19T04:56:08;99646.38;;;4.81;100.00
74327;BME280;62745;51.060;13.786;2023-11-19T04:58:34;99624.25;;;4.74;100.00
74327;BME280;62745;51.060;13.786;2023-11-19T05:01:01;99625.56;;;4.70;100.00
74327;BME280;62745;51.060;13.786;2023-11-19T05:03:26;99637.66;;;4.72;100.00
74327;BME280;62745;51.060;13.786;2023-11-19T05:05:52;99629.38;;;4.67;100.00
74327;BME280;62745;51.060;13.786;2023-11-19T05:08:17;99628.72;;;4.65;100.00
74327;BME280;62745;51.060;13.786;2023-11-19T05:10:42;99620.13;;;4.63;100.00
74327;BME280;62745;51.060;13.786;2023-11-19T05:13:07;99620.78;;;4.65;100.00
74327;BME280;62745;51.060;13.786;2023-11-19T05:15:32;99613.19;;;4.62;100.00
74327;BME280;62745;51.060;13.786;2023-11-19T05:17:58;99613.88;;;4.56;100.00
74327;BME280;62745;51.060;13.786;2023-11-19T05:20:23;99609.75;;;4.53;100.00
74327;BME280;62745;51.060;13.786;2023-11-19T05:22:49;99603.78;;;4.51;100.00
74327;BME280;62745;51.060;13.786;2023-11-19T05:25:16;99603.13;;;4.49;100.00
74327;BME280;62745;51.060;13.786;2023-11-19T05:27:41;99598.38;;;4.45;100.00
74327;BME280;62745;51.060;13.786;2023-11-19T05:30:07;99601.19;;;4.43;100.00
74327;BME280;62745;51.060;13.786;2023-11-19T05:32:33;99589.28;;;4.39;100.00
74327;BME280;62745;51.060;13.786;2023-11-19T05:34:58;99583.84;;;4.41;100.00
74327;BME280;62745;51.060;13.786;2023-11-19T05:37:23;99578.06;;;4.37;100.00
74327;BME280;62745;51.060;13.786;2023-11-19T05:39:50;99581.53;;;4.38;100.00
74327;BME280;62745;51.060;13.786;2023-11-19T05:42:15;99569.44;;;4.43;100.00
74327;BME280;62745;51.060;13.786;2023-11-19T05:44:40;99591.78;;;4.41;100.00
74327;BME280;62745;51.060;13.786;2023-11-19T05:47:06;99583.97;;;4.47;100.00
74327;BME280;62745;51.060;13.786;2023-11-19T05:49:32;99576.06;;;4.39;100.00
74327;BME280;62745;51.060;13.786;2023-11-19T05:51:58;99578.50;;;4.49;100.00
74327;BME280;62745;51.060;13.786;2023-11-19T05:54:24;99578.50;;;4.57;100.00
74327;BME280;62745;51.060;13.786;2023-11-19T05:56:49;99559.34;;;4.47;100.00
74327;BME280;62745;51.060;13.786;2023-11-19T05:59:15;99559.34;;;4.47;100.00
74327;BME280;62745;51.060;13.786;2023-11-19T06:01:43;99562.47;;;4.59;100.00
74327;BME280;62745;51.060;13.786;2023-11-19T06:04:08;99566.44;;;4.55;100.00
74327;BME280;62745;51.060;13.786;2023-11-19T06:06:33;99568.09;;;4.56;100.00
74327;BME280;62745;51.060;13.786;2023-11-19T06:08:59;99556.53;;;4.57;100.00
74327;BME280;62745;51.060;13.786;2023-11-19T06:11:24;99545.78;;;4.58;100.00
74327;BME280;62745;51.060;13.786;2023-11-19T06:13:52;99529.91;;;4.58;100.00
74327;BME280;62745;51.060;13.786;2023-11-19T06:16:17;99524.78;;;4.57;100.00
74327;BME280;62745;51.060;13.786;2023-11-19T06:18:42;99505.28;;;4.49;100.00
74327;BME280;62745;51.060;13.786;2023-11-19T06:21:09;99499.81;;;4.51;100.00
74327;BME280;62745;51.060;13.786;2023-11-19T06:23:34;99487.09;;;4.55;100.00
74327;BME280;62745;51.060;13.786;2023-11-19T06:26:00;99494.16;;;4.70;100.00
74327;BME280;62745;51.060;13.786;2023-11-19T06:28:25;99496.94;;;4.69;100.00
74327;BME280;62745;51.060;13.786;2023-11-19T06:30:50;99473.63;;;4.72;100.00
74327;BME280;62745;51.060;13.786;2023-11-19T06:33:15;99490.97;;;4.75;100.00
74327;BME280;62745;51.060;13.786;2023-11-19T06:35:41;99481.03;;;4.77;100.00
74327;BME280;62745;51.060;13.786;2023-11-19T06:38:06;99482.31;;;4.81;100.00
74327;BME280;62745;51.060;13.786;2023-11-19T06:40:33;99499.13;;;4.96;100.00
74327;BME280;62745;51.060;13.786;2023-11-19T06:42:58;99473.03;;;4.85;100.00
74327;BME280;62745;51.060;13.786;2023-11-19T06:45:23;99505.84;;;5.07;100.00
74327;BME280;62745;51.060;13.786;2023-11-19T06:47:49;99486.25;;;4.93;100.00
74327;BME280;62745;51.060;13.786;2023-11-19T06:50:15;99481.66;;;4.87;100.00
74327;BME280;62745;51.060;13.786;2023-11-19T06:52:40;99483.34;;;5.03;100.00
74327;BME280;62745;51.060;13.786;2023-11-19T06:55:07;99483.50;;;5.09;100.00
74327;BME280;62745;51.060;13.786;2023-11-19T06:57:32;99459.25;;;4.98;100.00
74327;BME280;62745;51.060;13.786;2023-11-19T06:59:58;99471.25;;;5.08;100.00
74327;BME280;62745;51.060;13.786;2023-11-19T07:02:24;99476.47;;;5.17;100.00
74327;BME280;62745;51.060;13.786;2023-11-19T07:04:49;99482.91;;;5.22;100.00
74327;BME280;62745;51.060;13.786;2023-11-19T07:07:14;99490.97;;;5.29;100.00
74327;BME280;62745;51.060;13.786;2023-11-19T07:09:40;99489.41;;;5.34;100.00
74327;BME280;62745;51.060;13.786;2023-11-19T07:12:06;99486.78;;;5.34;100.00
74327;BME280;62745;51.060;13.786;2023-11-19T07:14:32;99479.59;;;5.43;100.00
74327;BME280;62745;51.060;13.786;2023-11-19T07:16:57;99506.31;;;5.56;100.00
74327;BME280;62745;51.060;13.786;2023-11-19T07:19:23;99503.69;;;5.56;100.00
74327;BME280;62745;51.060;13.786;2023-11-19T07:21:48;99508.28;;;5.54;100.00
74327;BME280;62745;51.060;13.786;2023-11-19T07:24:14;99503.34;;;5.51;100.00
74327;BME280;62745;51.060;13.786;2023-11-19T07:26:43;99498.66;;;5.61;100.00
74327;BME280;62745;51.060;13.786;2023-11-19T07:29:09;99496.47;;;5.65;100.00
74327;BME280;62745;51.060;13.786;2023-11-19T07:31:35;99506.09;;;5.81;100.00
74327;BME280;62745;51.060;13.786;2023-11-19T07:34:00;99508.47;;;5.76;100.00
74327;BME280;62745;51.060;13.786;2023-11-19T07:36:25;99517.44;;;5.74;100.00
74327;BME280;62745;51.060;13.786;2023-11-19T07:38:50;99515.69;;;5.82;100.00
74327;BME280;62745;51.060;13.786;2023-11-19T07:41:16;99504.19;;;5.74;100.00
74327;BME280;62745;51.060;13.786;2023-11-19T07:43:44;99507.28;;;5.78;100.00
74327;BME280;62745;51.060;13.786;2023-11-19T07:46:12;99507.47;;;5.77;100.00
74327;BME280;62745;51.060;13.786;2023-11-19T07:48:40;99499.44;;;5.85;100.00
74327;BME280;62745;51.060;13.786;2023-11-19T07:51:07;99499.84;;;5.96;100.00
74327;BME280;62745;51.060;13.786;2023-11-19T07:53:32;99498.91;;;5.89;100.00
74327;BME280;62745;51.060;13.786;2023-11-19T07:56:02;99503.34;;;6.12;100.00
74327;BME280;62745;51.060;13.786;2023-11-19T07:58:28;99500.59;;;6.20;100.00
74327;BME280;62745;51.060;13.786;2023-11-19T08:00:53;99515.06;;;6.32;100.00
74327;BME280;62745;51.060;13.786;2023-11-19T08:03:18;99507.63;;;6.13;100.00
74327;BME280;62745;51.060;13.786;2023-11-19T08:05:47;99518.00;;;6.22;100.00
74327;BME280;62745;51.060;13.786;2023-11-19T08:08:12;99508.47;;;6.28;100.00
74327;BME280;62745;51.060;13.786;2023-11-19T08:10:38;99509.09;;;6.15;100.00
74327;BME280;62745;51.060;13.786;2023-11-19T08:13:03;99515.97;;;6.10;100.00
74327;BME280;62745;51.060;13.786;2023-11-19T08:15:29;99511.47;;;6.10;100.00
74327;BME280;62745;51.060;13.786;2023-11-19T08:17:54;99510.75;;;6.16;100.00
74327;BME280;62745;51.060;13.786;2023-11-19T08:20:19;99502.34;;;6.27;100.00
74327;BME280;62745;51.060;13.786;2023-11-19T08:22:44;99501.53;;;6.42;100.00
74327;BME280;62745;51.060;13.786;2023-11-19T08:25:10;99501.34;;;6.43;100.00
74327;BME280;62745;51.060;13.786;2023-11-19T08:27:35;99508.09;;;6.46;100.00
74327;BME280;62745;51.060;13.786;2023-11-19T08:30:00;99504.00;;;6.58;100.00
74327;BME280;62745;51.060;13.786;2023-11-19T08:32:26;99480.56;;;6.61;100.00
74327;BME280;62745;51.060;13.786;2023-11-19T08:34:52;99482.56;;;6.74;100.00
74327;BME280;62745;51.060;13.786;2023-11-19T08:37:18;99466.16;;;6.71;100.00
74327;BME280;62745;51.060;13.786;2023-11-19T08:39:46;99503.25;;;7.00;100.00
74327;BME280;62745;51.060;13.786;2023-11-19T08:42:12;99480.47;;;7.27;100.00
74327;BME280;62745;51.060;13.786;2023-11-19T08:44:37;99492.84;;;7.20;100.00
74327;BME280;62745;51.060;13.786;2023-11-19T08:47:02;99482.72;;;7.30;100.00
74327;BME280;62745;51.060;13.786;2023-11-19T08:49:28;99483.38;;;7.32;100.00
74327;BME280;62745;51.060;13.786;2023-11-19T08:51:53;99490.66;;;7.23;100.00
74327;BME280;62745;51.060;13.786;2023-11-19T08:54:18;99506.69;;;7.37;100.00
74327;BME280;62745;51.060;13.786;2023-11-19T08:56:45;99495.06;;;7.38;100.00
74327;BME280;62745;51.060;13.786;2023-11-19T08:59:10;99510.88;;;7.67;100.00
74327;BME280;62745;51.060;13.786;2023-11-19T09:01:36;99507.53;;;7.59;100.00
74327;BME280;62745;51.060;13.786;2023-11-19T09:04:01;99506.72;;;7.86;100.00
74327;BME280;62745;51.060;13.786;2023-11-19T09:06:26;99508.44;;;7.72;100.00
74327;BME280;62745;51.060;13.786;2023-11-19T09:08:52;99504.56;;;7.96;100.00
74327;BME280;62745;51.060;13.786;2023-11-19T09:11:18;99521.97;;;7.99;100.00
74327;BME280;62745;51.060;13.786;2023-11-19T09:13:43;99514.22;;;7.76;100.00
74327;BME280;62745;51.060;13.786;2023-11-19T09:16:11;99491.16;;;7.83;100.00
74327;BME280;62745;51.060;13.786;2023-11-19T09:18:37;99491.34;;;7.81;100.00
74327;BME280;62745;51.060;13.786;2023-11-19T09:21:02;99508.75;;;7.84;100.00
74327;BME280;62745;51.060;13.786;2023-11-19T09:23:28;99503.03;;;8.08;100.00
74327;BME280;62745;51.060;13.786;2023-11-19T09:25:55;99494.97;;;8.30;100.00
74327;BME280;62745;51.060;13.786;2023-11-19T09:28:20;99506.41;;;8.24;100.00
74327;BME280;62745;51.060;13.786;2023-11-19T09:30:46;99512.97;;;8.28;100.00
74327;BME280;62745;51.060;13.786;2023-11-19T09:33:12;99518.50;;;8.33;100.00
74327;BME280;62745;51.060;13.786;2023-11-19T09:35:37;99515.03;;;8.32;100.00
74327;BME280;62745;51.060;13.786;2023-11-19T09:38:02;99516.13;;;8.38;100.00
74327;BME280;62745;51.060;13.786;2023-11-19T09:40:28;99500.59;;;8.41;100.00
74327;BME280;62745;51.060;13.786;2023-11-19T09:42:53;99488.16;;;8.55;100.00
74327;BME280;62745;51.060;13.786;2023-11-19T09:45:20;99498.25;;;8.66;100.00
74327;BME280;62745;51.060;13.786;2023-11-19T09:47:47;99500.09;;;8.72;100.00
74327;BME280;62745;51.060;13.786;2023-11-19T09:50:16;99503.03;;;8.84;100.00
74327;BME280;62745;51.060;13.786;2023-11-19T09:52:42;99502.41;;;8.82;100.00
74327;BME280;62745;51.060;13.786;2023-11-19T09:55:08;99506.31;;;8.86;100.00
74327;BME280;62745;51.060;13.786;2023-11-19T09:57:35;99499.41;;;9.05;100.00
74327;BME280;62745;51.060;13.786;2023-11-19T10:00:03;99495.72;;;9.06;100.00
74327;BME280;62745;51.060;13.786;2023-11-19T10:02:31;99480.53;;;8.93;100.00
74327;BME280;62745;51.060;13.786;2023-11-19T10:04:59;99480.19;;;9.16;100.00
74327;BME280;62745;51.060;13.786;2023-11-19T10:07:24;99490.47;;;9.32;100.00
74327;BME280;62745;51.060;13.786;2023-11-19T10:09:50;99483.31;;;9.73;100.00
74327;BME280;62745;51.060;13.786;2023-11-19T10:12:15;99489.03;;;10.22;100.00
74327;BME280;62745;51.060;13.786;2023-11-19T10:14:42;99477.50;;;10.35;100.00
74327;BME280;62745;51.060;13.786;2023-11-19T10:17:08;99488.06;;;10.75;100.00
74327;BME280;62745;51.060;13.786;2023-11-19T10:19:33;99471.53;;;10.91;100.00
74327;BME280;62745;51.060;13.786;2023-11-19T10:22:03;99469.50;;;10.93;100.00
74327;BME280;62745;51.060;13.786;2023-11-19T10:24:32;99478.47;;;11.05;100.00
74327;BME280;62745;51.060;13.786;2023-11-19T10:26:59;99474.50;;;11.14;100.00
74327;BME280;62745;51.060;13.786;2023-11-19T10:29:25;99478.75;;;11.22;100.00
74327;BME280;62745;51.060;13.786;2023-11-19T10:31:56;99482.88;;;11.25;100.00
74327;BME280;62745;51.060;13.786;2023-11-19T10:34:26;99483.28;;;11.28;100.00
74327;BME280;62745;51.060;13.786;2023-11-19T10:36:51;99476.63;;;11.37;100.00
74327;BME280;62745;51.060;13.786;2023-11-19T10:39:17;99475.56;;;11.38;100.00
74327;BME280;62745;51.060;13.786;2023-11-19T10:41:43;99456.09;;;11.31;100.00
74327;BME280;62745;51.060;13.786;2023-11-19T10:44:08;99470.81;;;11.47;100.00
74327;BME280;62745;51.060;13.786;2023-11-19T10:49:04;99456.16;;;11.50;100.00
74327;BME280;62745;51.060;13.786;2023-11-19T10:51:29;99449.47;;;11.65;100.00
74327;BME280;62745;51.060;13.786;2023-11-19T10:54:00;99446.94;;;11.70;100.00
74327;BME280;62745;51.060;13.786;2023-11-19T10:56:28;99452.13;;;11.65;100.00
74327;BME280;62745;51.060;13.786;2023-11-19T10:58:56;99474.72;;;11.69;100.00
74327;BME280;62745;51.060;13.786;2023-11-19T11:01:27;99474.50;;;11.71;100.00
74327;BME280;62745;51.060;13.786;2023-11-19T11:03:58;99462.78;;;11.72;100.00
74327;BME280;62745;51.060;13.786;2023-11-19T11:06:26;99456.72;;;11.58;100.00
74327;BME280;62745;51.060;13.786;2023-11-19T11:08:53;99461.50;;;11.74;100.00
74327;BME280;62745;51.060;13.786;2023-11-19T11:11:19;99453.47;;;11.74;100.00
74327;BME280;62745;51.060;13.786;2023-11-19T11:13:49;99464.59;;;11.78;100.00
74327;BME280;62745;51.060;13.786;2023-11-19T11:16:18;99467.28;;;11.78;100.00
74327;BME280;62745;51.060;13.786;2023-11-19T11:18:45;99460.09;;;11.79;100.00
74327;BME280;62745;51.060;13.786;2023-11-19T11:21:15;99448.66;;;11.90;100.00
74327;BME280;62745;51.060;13.786;2023-11-19T11:23:59;99461.06;;;11.84;100.00
74327;BME280;62745;51.060;13.786;2023-11-19T11:26:36;99458.00;;;11.81;100.00
74327;BME280;62745;51.060;13.786;2023-11-19T11:29:35;99477.25;;;11.89;100.00
74327;BME280;62745;51.060;13.786;2023-11-19T11:32:37;99479.56;;;11.86;100.00
74327;BME280;62745;51.060;13.786;2023-11-19T11:35:25;99480.00;;;11.83;100.00
74327;BME280;62745;51.060;13.786;2023-11-19T11:38:04;99477.78;;;11.80;100.00
74327;BME280;62745;51.060;13.786;2023-11-19T11:40:31;99454.75;;;11.79;100.00
74327;BME280;62745;51.060;13.786;2023-11-19T11:42:57;99453.94;;;11.71;100.00
74327;BME280;62745;51.060;13.786;2023-11-19T11:45:42;99464.63;;;11.71;100.00
74327;BME280;62745;51.060;13.786;2023-11-19T11:48:12;99465.63;;;11.77;100.00
74327;BME280;62745;51.060;13.786;2023-11-19T11:50:53;99468.50;;;11.75;100.00
74327;BME280;62745;51.060;13.786;2023-11-19T11:53:20;99477.94;;;12.28;100.00
74327;BME280;62745;51.060;13.786;2023-11-19T11:58:13;99477.47;;;13.16;100.00
74327;BME280;62745;51.060;13.786;2023-11-19T12:00:40;99461.94;;;13.36;100.00
74327;BME280;62745;51.060;13.786;2023-11-19T12:03:07;99441.47;;;13.65;100.00
74327;BME280;62745;51.060;13.786;2023-11-19T12:05:33;99460.97;;;14.07;100.00
74327;BME280;62745;51.060;13.786;2023-11-19T12:08:06;99447.59;;;14.59;100.00
74327;BME280;62745;51.060;13.786;2023-11-19T12:10:37;99460.16;;;14.19;100.00
74327;BME280;62745;51.060;13.786;2023-11-19T12:13:08;99449.06;;;13.68;100.00
74327;BME280;62745;51.060;13.786;2023-11-19T12:15:33;99435.41;;;13.81;100.00
74327;BME280;62745;51.060;13.786;2023-11-19T12:18:18;99436.88;;;13.42;100.00
74327;BME280;62745;51.060;13.786;2023-11-19T12:20:44;99436.63;;;13.32;100.00
74327;BME280;62745;51.060;13.786;2023-11-19T12:23:10;99436.88;;;13.31;100.00
74327;BME280;62745;51.060;13.786;2023-11-19T12:25:35;99425.16;;;13.25;100.00
74327;BME280;62745;51.060;13.786;2023-11-19T12:28:01;99434.97;;;13.19;100.00
74327;BME280;62745;51.060;13.786;2023-11-19T12:30:29;99412.28;;;14.04;100.00
74327;BME280;62745;51.060;13.786;2023-11-19T12:32:55;99425.91;;;14.49;100.00
74327;BME280;62745;51.060;13.786;2023-11-19T12:35:20;99401.88;;;14.99;100.00
74327;BME280;62745;51.060;13.786;2023-11-19T12:37:47;99408.28;;;15.77;100.00
74327;BME280;62745;51.060;13.786;2023-11-19T12:40:24;99405.44;;;15.50;100.00
74327;BME280;62745;51.060;13.786;2023-11-19T12:42:53;99407.47;;;16.32;94.31
74327;BME280;62745;51.060;13.786;2023-11-19T12:45:18;99402.19;;;15.65;98.54
74327;BME280;62745;51.060;13.786;2023-11-19T12:47:46;99395.41;;;15.46;97.80
74327;BME280;62745;51.060;13.786;2023-11-19T12:50:13;99395.97;;;15.48;98.36